• Join FlightAware (Why Join?)
  • Login
  • US Flag 
02:14AM EDT


 

Airport Tracker/Info


-or-


 

Live Flight TrackerFlight Track Log ✈ ASQ6045 ✈ 20-Aug-2013 ✈ KORD - KTUL

Flight Track Log - Related Links

Times and Time Zones

All times are in EDT time to prevent confusion due to time zone crossing. See the ASQ6045 flight status page for this flight to view local times or setup timezone preferences in your user account.

Time Position Orientation Groundspeed Altitude Reporting Facility
EDT Latitude Longitude Course Direction KTS MPH feet Rate Location/Type
10:54AM 41.9762 -87.9089 197° South  Level FlightAware Approximate
10:54AM 41.9333 -87.9000 197° South 188 216 2,700  Level Chicago TRACON
10:55AM 41.9207 -87.9963 217° Southwest  Level Estimated
10:55AM 41.8667 -87.9167 191° South 241 277 5,500  Level Chicago TRACON
10:55AM 41.8128 -87.9192 182° South 252 290 7,600 2,580 Climbing Chicago Center
10:56AM 41.8652 -88.0836 200° South  Level Estimated
10:56AM 41.7411 -87.9619 204° Southwest 279 321 10,300  Level Chicago Center
10:57AM 41.8097 -88.1707 180° South  Level Estimated
10:57AM 41.6658 -88.0100 205° Southwest 299 344 12,700  Level Chicago Center
10:58AM 41.7540 -88.2576 203° Southwest  Level Estimated
10:59AM 41.6983 -88.3444 197° South  Level Estimated
10:59AM 41.5631 -88.0772 206° Southwest 349 402 14,100  Level Chicago Center
11:00AM 41.4722 -88.1372 206° Southwest 372 428 15,600 1,500 Climbing Chicago Center
11:01AM 41.3772 -88.1936 204° Southwest 389 448 17,200 1,560 Climbing Chicago Center
11:02AM 41.2550 -88.2483 199° South 393 452 18,900 1,500 Climbing Chicago Center
11:03AM 41.1517 -88.2950 199° South 394 453 20,400 1,560 Climbing Chicago Center
11:04AM 41.0475 -88.3431 199° South 399 459 22,200 1,800 Climbing Chicago Center
11:05AM 40.9456 -88.3872 198° South 393 452 24,200 1,920 Climbing Chicago Center
11:06AM 40.8453 -88.4336 199° South 387 445 26,200 2,040 Climbing Chicago Center
11:07AM 40.7475 -88.5397 219° Southwest 378 435 28,500 1,740 Climbing Chicago Center
11:08AM 40.6653 -88.6272 219° Southwest 377 434 29,900 1,140 Climbing Chicago Center
11:09AM 40.5808 -88.7172 219° Southwest 387 445 30,900 960 Climbing Chicago Center
11:10AM 40.4914 -88.8106 218° Southwest 405 466 31,900 480 Climbing Chicago Center
11:11AM 40.3931 -88.9142 219° Southwest 424 488 32,000 720 Climbing Chicago Center
11:12AM 40.2944 -89.0172 219° Southwest 444 511 33,400 1,560 Climbing Chicago Center
11:13AM 40.2006 -89.1144 218° Southwest 434 499 35,300 1,200 Climbing Chicago Center
11:14AM 40.1083 -89.2125 219° Southwest 421 484 36,000 300 Climbing Kansas City Center
11:15AM 40.0136 -89.3097 218° Southwest 426 490 36,000  Level Kansas City Center
11:16AM 39.8961 -89.4322 219° Southwest 448 516 36,000  Level Chicago Center
11:17AM 39.7950 -89.5378 219° Southwest 455 524 36,000  Level Kansas City Center
11:18AM 39.7017 -89.6328 218° Southwest 455 524 36,000  Level Kansas City Center
11:19AM 39.6047 -89.7328 218° Southwest 449 517 36,000  Level Kansas City Center
11:20AM 39.4878 -89.8517 218° Southwest 447 514 36,000  Level Kansas City Center
11:21AM 39.3900 -89.9522 218° Southwest 449 517 36,000  Level Kansas City Center
11:22AM 39.2911 -90.0514 218° Southwest 450 518 36,000  Level Kansas City Center
11:23AM 39.1922 -90.1508 218° Southwest 452 520 36,000  Level Kansas City Center
11:24AM 39.0931 -90.2511 218° Southwest 453 521 36,000  Level Kansas City Center
11:25AM 38.9944 -90.3503 218° Southwest 453 521 36,000  Level Kansas City Center
11:26AM 38.8753 -90.4697 218° Southwest 457 526 36,000  Level Kansas City Center
11:27AM 38.7953 -90.5897 229° Southwest 458 527 36,000  Level Kansas City Center
11:29AM 38.7286 -90.7219 237° Southwest 451 519 36,000  Level Kansas City Center
11:30AM 38.6611 -90.8547 237° Southwest 450 518 36,000  Level Kansas City Center
11:31AM 38.5806 -91.0131 237° Southwest 445 512 36,000  Level Kansas City Center
11:32AM 38.5147 -91.1458 238° Southwest 444 511 36,000  Level Kansas City Center
11:33AM 38.4467 -91.2789 237° Southwest 448 516 36,000  Level Kansas City Center
11:34AM 38.3781 -91.4147 237° Southwest 456 525 36,000  Level Kansas City Center
11:35AM 38.3075 -91.5517 237° Southwest 461 531 36,000  Level Kansas City Center
11:36AM 38.2372 -91.6875 237° Southwest 462 532 36,000  Level Kansas City Center
11:37AM 38.1525 -91.8497 236° Southwest 460 529 36,000  Level Kansas City Center
11:38AM 38.0808 -91.9881 237° Southwest 458 527 36,000  Level Kansas City Center
11:39AM 38.0128 -92.1192 237° Southwest 458 527 36,000  Level Kansas City Center
11:40AM 37.9419 -92.2525 236° Southwest 457 526 36,000  Level Kansas City Center
11:41AM 37.8694 -92.3867 236° Southwest 462 532 36,000  Level Kansas City Center
11:42AM 37.7981 -92.5200 236° Southwest 460 529 36,000  Level Kansas City Center
11:43AM 37.7122 -92.6797 236° Southwest 459 528 36,000  Level Kansas City Center
11:44AM 37.6503 -92.7944 236° Southwest 457 526 36,000  Level Kansas City Center
11:45AM 37.5644 -92.9528 236° Southwest 457 526 36,000 -420 Level Kansas City Center
11:46AM 37.4869 -93.0950 236° Southwest 454 522 35,200 -840 Descending Kansas City Center
11:47AM 37.4283 -93.2219 240° Southwest 449 517 34,300 -960 Descending Kansas City Center
11:48AM 37.3775 -93.3617 245° Southwest 456 525 33,300 -1,020 Descending Kansas City Center
11:49AM 37.3211 -93.5150 245° Southwest 464 534 32,200 -1,020 Descending Kansas City Center
11:50AM 37.2658 -93.6600 244° Southwest 460 529 31,200 -1,080 Descending Kansas City Center
11:51AM 37.2006 -93.8331 245° Southwest 457 526 30,000 -1,140 Descending Kansas City Center
11:52AM 37.1458 -93.9772 245° Southwest 458 527 28,900 -1,020 Descending Kansas City Center
11:53AM 37.0911 -94.1222 245° Southwest 460 529 27,900 -960 Descending Kansas City Center
11:54AM 37.0372 -94.2636 245° Southwest 451 519 26,900 -960 Descending Kansas City Center
11:55AM 36.9839 -94.4008 244° Southwest 439 505 25,900 -1,140 Descending Kansas City Center
11:56AM 36.9319 -94.5367 244° Southwest 435 501 24,600 -1,860 Descending Kansas City Center
11:57AM 36.8686 -94.6969 244° Southwest 431 496 22,100 -2,460 Descending Kansas City Center
11:59AM 36.8194 -94.8258 245° Southwest 417 480 19,600 -2,220 Descending Kansas City Center
12:00PM 36.7714 -94.9503 244° Southwest 406 467 17,700 -1,620 Descending Kansas City Center
12:01PM 36.7244 -95.0697 244° Southwest 391 450 16,300 -1,440 Descending Kansas City Center
12:02PM 36.6783 -95.1867 244° Southwest 380 437 14,700 -1,500 Descending Kansas City Center
12:03PM 36.6108 -95.2889 231° Southwest 386 444 13,200 -1,800 Descending Kansas City Center
12:04PM 36.5256 -95.3936 225° Southwest 365 420 11,100 -1,620 Descending Kansas City Center
12:05PM 36.4631 -95.4697 224° Southwest 301 346 10,000 -1,020 Descending Kansas City Center
12:06PM 36.4411 -95.5767 256° West 295 339 9,000 -900 Descending Kansas City Center
12:07PM 36.4336 -95.6675 264° West 296 341 8,100 -1,440 Descending Kansas City Center
12:08PM 36.4225 -95.7739 263° West 283 326 6,300 -1,740 Descending Kansas City Center
12:09PM 36.4164 -95.8500 264° West 263 303 5,000 -1,140 Descending Kansas City Center
12:10PM 36.3747 -95.8761 207° Southwest 169 194 4,100 -900 Descending Kansas City Center
12:11PM 36.3306 -95.8742 178° South 147 169 3,200 -900 Descending Kansas City Center
12:12PM 36.2928 -95.8764 183° South 127 146 2,300 -900 Descending Kansas City Center
12:13PM 36.2575 -95.8786 183° South 129 148 1,400 -780 Descending Kansas City Center
12:14PM 36.2219 -95.8806 183° South 125 144 800 -600 Descending Kansas City Center